^^
Your Local Weather - Clay, NY Station Historical Data
Daily Summary for April 25, 2017 Units:  Metric    English   Both
« Previous Day
Next Day »
Daily Weekly Monthly Yearly Custom
  High: Low: Average:
Temperature: 13.3 °C 8.2 °C 10.8 °C
Dew Point: 9.2 °C 3.9 °C 6.8 °C
Humidity: 88% 61% 77%
Wind Speed: 11.3km/h 0km/h 6km/h
Wind Gust: 24.1km/h - -
Wind- - East
Pressure: 1018.5 hPa 1010.7 hPa -
Precipitation: 7.37 mm    
Historical Graphs
 
 
Tabular Data for April 25, 2017
Time Temperature Dew Point Pressure Wind Wind Speed Wind Gust Humidity Rainfall Rate (Hourly) solar
00:00 10 °C 5 °C 1017.5 hPa Calm     71% 0 mm 0 W/m2
00:06 9.8 °C 4.8 °C 1017.5 hPa Calm     71% 0 mm 0 W/m2
00:18 9.7 °C 4.7 °C 1017.5 hPa ESE 1.6 km/h 1.6 km/h 71% 0 mm 0 W/m2
00:24 9.8 °C 4.6 °C 1017.5 hPa Calm   1.6 km/h 70% 0 mm 0 W/m2
00:30 9.8 °C 4.8 °C 1017.5 hPa ESE 1.6 km/h 1.6 km/h 71% 0 mm 0 W/m2
00:36 9.9 °C 4.7 °C 1017.5 hPa East 1.6 km/h 3.2 km/h 70% 0 mm 0 W/m2
00:42 9.9 °C 4.7 °C 1017.5 hPa East 1.6 km/h 1.6 km/h 70% 0 mm 0 W/m2
00:48 10 °C 4.8 °C 1017.5 hPa East 1.6 km/h 1.6 km/h 70% 0 mm 0 W/m2
00:54 9.9 °C 4.9 °C 1017.2 hPa Calm   1.6 km/h 71% 0 mm 0 W/m2
01:00 9.9 °C 4.9 °C 1017.5 hPa Calm     71% 0 mm 0 W/m2
01:06 9.7 °C 4.7 °C 1017.5 hPa Calm     71% 0 mm 0 W/m2
01:12 9.8 °C 4.6 °C 1017.2 hPa Calm     70% 0 mm 0 W/m2
01:18 9.8 °C 4.8 °C 1017.2 hPa Calm     71% 0 mm 0 W/m2
01:24 9.8 °C 4.6 °C 1017.2 hPa Calm     70% 0 mm 0 W/m2
01:30 9.9 °C 5.3 °C 1017.2 hPa Calm     73% 0 mm 0 W/m2
01:36 9.7 °C 4.9 °C 1017.2 hPa Calm   1.6 km/h 72% 0 mm 0 W/m2
01:42 9.7 °C 4.8 °C 1017.2 hPa Calm   1.6 km/h 72% 0 mm 0 W/m2
01:48 9.8 °C 5.4 °C 1017.2 hPa ENE 1.6 km/h 3.2 km/h 74% 0 mm 0 W/m2
01:54 9.7 °C 5.3 °C 1017.2 hPa Calm   1.6 km/h 74% 0 mm 0 W/m2
02:00 9.5 °C 5.3 °C 1017.2 hPa Calm     75% 0 mm 0 W/m2
02:06 9.3 °C 5.4 °C 1016.8 hPa Calm     77% 0 mm 0 W/m2
02:12 9.1 °C 5.2 °C 1016.8 hPa Calm     77% 0 mm 0 W/m2
02:18 8.9 °C 5.1 °C 1016.8 hPa Calm     77% 0 mm 0 W/m2
02:24 8.9 °C 5.4 °C 1016.8 hPa Calm     79% 0 mm 0 W/m2
02:30 9.1 °C 5.6 °C 1016.8 hPa Calm     79% 0 mm 0 W/m2
02:36 9.2 °C 5.3 °C 1016.5 hPa ENE 1.6 km/h 3.2 km/h 77% 0 mm 0 W/m2
02:42 9.3 °C 5.3 °C 1016.5 hPa Calm   1.6 km/h 76% 0 mm 0 W/m2
02:48 9.6 °C 5.2 °C 1016.5 hPa Calm   3.2 km/h 74% 0 mm 0 W/m2
02:54 10 °C 5.2 °C 1016.5 hPa ENE 1.6 km/h 4.8 km/h 72% 0 mm 0 W/m2
03:00 10.3 °C 5.1 °C 1016.5 hPa NE 1.6 km/h 3.2 km/h 70% 0 mm 0 W/m2
03:06 10.7 °C 5.2 °C 1016.5 hPa East 1.6 km/h 3.2 km/h 69% 0 mm 0 W/m2
03:12 10.8 °C 5.3 °C 1016.5 hPa NE 1.6 km/h 3.2 km/h 69% 0 mm 0 W/m2
03:18 10.6 °C 5.1 °C 1016.5 hPa East 1.6 km/h 3.2 km/h 69% 0 mm 0 W/m2
03:24 10.6 °C 5.1 °C 1016.5 hPa ENE 1.6 km/h 1.6 km/h 69% 0 mm 0 W/m2
03:30 11 °C 5.1 °C 1016.5 hPa East 3.2 km/h 3.2 km/h 67% 0 mm 0 W/m2
03:36 11.1 °C 5 °C 1016.1 hPa East 4.8 km/h 12.9 km/h 66% 0 mm 0 W/m2
03:42 11.2 °C 4.9 °C 1016.1 hPa East 4.8 km/h 9.7 km/h 65% 0 mm 0 W/m2
03:48 11.3 °C 4.7 °C 1015.8 hPa ENE 4.8 km/h 9.7 km/h 64% 0 mm 0 W/m2
03:54 11.3 °C 4.7 °C 1016.1 hPa ESE 3.2 km/h 8 km/h 64% 0 mm 0 W/m2
04:00 11.2 °C 4.6 °C 1016.1 hPa East 4.8 km/h 4.8 km/h 64% 0 mm 0 W/m2
04:06 11.2 °C 4.4 °C 1016.1 hPa ENE 4.8 km/h 6.4 km/h 63% 0 mm 0 W/m2
04:12 11.2 °C 4.4 °C 1016.1 hPa ENE 4.8 km/h 4.8 km/h 63% 0 mm 0 W/m2
04:18 11.2 °C 4.4 °C 1016.5 hPa East 4.8 km/h 4.8 km/h 63% 0 mm 0 W/m2
04:24 11.3 °C 4.3 °C 1016.5 hPa East 4.8 km/h 6.4 km/h 62% 0 mm 0 W/m2
04:30 11.2 °C 4.2 °C 1016.5 hPa ENE 3.2 km/h 4.8 km/h 62% 0 mm 0 W/m2
04:36 11.2 °C 4.2 °C 1016.5 hPa ENE 4.8 km/h 8 km/h 62% 0 mm 0 W/m2
04:42 11.2 °C 4.2 °C 1016.5 hPa NNE 4.8 km/h 4.8 km/h 62% 0 mm 0 W/m2
04:48 11.2 °C 3.9 °C 1016.5 hPa East 4.8 km/h 8 km/h 61% 0 mm 0 W/m2
04:54 11.2 °C 4.2 °C 1016.5 hPa ENE 6.4 km/h 8 km/h 62% 0 mm 0 W/m2
05:02 11.2 °C 3.9 °C 1016.5 hPa ENE 4.8 km/h 6.4 km/h 61% 0 mm 0 W/m2
05:08 11.1 °C 4.1 °C 1016.5 hPa East 4.8 km/h 9.7 km/h 62% 0 mm 0 W/m2
05:14 10.9 °C 4.2 °C 1016.5 hPa ENE 4.8 km/h 14.5 km/h 63% 0 mm 0 W/m2
05:20 10.8 °C 4.3 °C 1016.5 hPa ENE 4.8 km/h 4.8 km/h 64% 0 mm 0 W/m2
05:26 10.7 °C 4.2 °C 1016.5 hPa NE 3.2 km/h 6.4 km/h 64% 0 mm 0 W/m2
05:32 10.7 °C 4.3 °C 1016.5 hPa ENE 3.2 km/h 8 km/h 65% 0 mm 0 W/m2
05:38 10.6 °C 4.4 °C 1016.5 hPa ENE 3.2 km/h 8 km/h 66% 0 mm 0 W/m2
05:44 10.4 °C 4.8 °C 1016.8 hPa East 3.2 km/h 3.2 km/h 68% 0 mm 0 W/m2
05:50 10.1 °C 5.1 °C 1016.8 hPa ENE 4.8 km/h 4.8 km/h 71% 0 mm 0 W/m2
05:56 9.8 °C 5 °C 1016.8 hPa ENE 4.8 km/h 8 km/h 72% 0 mm 0 W/m2
06:02 9.8 °C 5.2 °C 1016.8 hPa ENE 4.8 km/h 6.4 km/h 73% 0 mm 0 W/m2
06:08 9.7 °C 5.3 °C 1016.8 hPa East 4.8 km/h 6.4 km/h 74% 0 mm 0 W/m2
06:14 9.7 °C 5.4 °C 1016.8 hPa ENE 4.8 km/h 6.4 km/h 75% 0 mm 0 W/m2
06:20 9.6 °C 5.4 °C 1016.8 hPa NE 4.8 km/h 4.8 km/h 75% 0 mm 0 W/m2
06:26 9.6 °C 5.4 °C 1017.2 hPa NE 4.8 km/h 6.4 km/h 75% 0 mm 7 W/m2
06:38 9.7 °C 5.3 °C 1017.2 hPa ENE 3.2 km/h 4.8 km/h 74% 0 mm 9 W/m2
06:44 9.7 °C 5.3 °C 1017.2 hPa East 4.8 km/h 8 km/h 74% 0 mm 11 W/m2
06:50 9.8 °C 5.2 °C 1017.2 hPa ENE 4.8 km/h 4.8 km/h 73% 0 mm 12 W/m2
06:56 9.8 °C 5.2 °C 1017.5 hPa East 4.8 km/h 4.8 km/h 73% 0 mm 16 W/m2
07:02 9.9 °C 5.1 °C 1017.5 hPa ENE 3.2 km/h 4.8 km/h 72% 0 mm 19 W/m2
07:08 9.9 °C 5.1 °C 1017.5 hPa East 3.2 km/h 4.8 km/h 72% 0 mm 23 W/m2
07:14 9.9 °C 5.1 °C 1017.8 hPa East 3.2 km/h 8 km/h 72% 0 mm 25 W/m2
07:20 9.9 °C 5.1 °C 1017.8 hPa East 3.2 km/h 3.2 km/h 72% 0 mm 30 W/m2
07:26 9.9 °C 5.1 °C 1017.8 hPa ESE 3.2 km/h 4.8 km/h 72% 0 mm 37 W/m2
07:32 9.8 °C 5.4 °C 1017.8 hPa ESE 3.2 km/h 4.8 km/h 74% 0 mm 42 W/m2
07:38 9.7 °C 5.5 °C 1017.8 hPa NE 1.6 km/h 4.8 km/h 75% 0 mm 40 W/m2
07:44 9.7 °C 5.4 °C 1018.2 hPa ENE 3.2 km/h 9.7 km/h 75% 0 mm 39 W/m2
07:50 9.6 °C 5.6 °C 1018.2 hPa NE 4.8 km/h 9.7 km/h 76% 0 mm 42 W/m2
07:56 9.5 °C 5.5 °C 1018.2 hPa ENE 4.8 km/h 16.1 km/h 76% 0 mm 51 W/m2
08:02 9.4 °C 5.4 °C 1018.2 hPa East 6.4 km/h 12.9 km/h 76% 0 mm 51 W/m2
08:08 9.3 °C 5.5 °C 1018.2 hPa ENE 6.4 km/h 12.9 km/h 77% 0 mm 54 W/m2
08:14 9.2 °C 5.6 °C 1017.8 hPa NE 6.4 km/h 11.3 km/h 78% 0 mm 56 W/m2
08:20 9.1 °C 5.4 °C 1018.2 hPa East 8 km/h 9.7 km/h 78% 0 mm 60 W/m2
08:26 8.9 °C 5.5 °C 1018.2 hPa East 8 km/h 9.7 km/h 79% 0 mm 84 W/m2
08:32 8.9 °C 5.8 °C 1018.2 hPa ENE 6.4 km/h 6.4 km/h 81% 0 mm 83 W/m2
08:38 8.8 °C 5.7 °C 1018.2 hPa ENE 4.8 km/h 14.5 km/h 81% 0 mm 67 W/m2
08:44 8.7 °C 5.8 °C 1018.2 hPa ENE 4.8 km/h 16.1 km/h 82% 1.27 mm 63 W/m2
08:50 8.5 °C 5.6 °C 1018.2 hPa ESE 6.4 km/h 6.4 km/h 82% 1.27 mm 60 W/m2
08:56 8.4 °C 5.7 °C 1018.2 hPa NE 8 km/h 11.3 km/h 83% 1.52 mm 67 W/m2
09:02 8.3 °C 5.8 °C 1018.2 hPa ENE 8 km/h 14.5 km/h 84% 2.79 mm 67 W/m2
09:08 8.3 °C 5.9 °C 1018.2 hPa NE 8 km/h 14.5 km/h 85% 5.33 mm 74 W/m2
09:14 8.2 °C 5.8 °C 1018.2 hPa NNE 6.4 km/h 14.5 km/h 85% 5.84 mm 79 W/m2
09:20 8.2 °C 6 °C 1018.2 hPa ENE 6.4 km/h 6.4 km/h 86% 2.79 mm 76 W/m2
09:26 8.2 °C 5.9 °C 1018.5 hPa NE 8 km/h 12.9 km/h 86% 1.78 mm 74 W/m2
09:32 8.2 °C 5.9 °C 1018.2 hPa East 8 km/h 12.9 km/h 86% 1.78 mm 95 W/m2
09:38 8.2 °C 6.1 °C 1018.2 hPa ENE 8 km/h 12.9 km/h 87% 1.27 mm 134 W/m2
09:44 8.2 °C 6.1 °C 1018.2 hPa ENE 8 km/h 12.9 km/h 87% 1.27 mm 155 W/m2
09:50 8.3 °C 6.2 °C 1018.2 hPa NNE 8 km/h 8 km/h 87% 1.27 mm 163 W/m2
09:56 8.4 °C 6.3 °C 1018.2 hPa ESE 6.4 km/h 14.5 km/h 87% 0 mm 153 W/m2
10:02 8.5 °C 6.3 °C 1018.2 hPa East 8 km/h 9.7 km/h 86% 0 mm 127 W/m2
10:08 8.6 °C 6.3 °C 1018.2 hPa East 8 km/h 9.7 km/h 86% 0 mm 123 W/m2
10:14 8.6 °C 6.3 °C 1018.2 hPa East 8 km/h 14.5 km/h 86% 3.81 mm 114 W/m2
10:20 8.6 °C 6.3 °C 1018.2 hPa ENE 8 km/h 12.9 km/h 86% 2.54 mm 83 W/m2
10:26 8.5 °C 6.4 °C 1018.2 hPa ENE 8 km/h 12.9 km/h 87% 3.56 mm 77 W/m2
10:32 8.4 °C 6.4 °C 1018.2 hPa East 6.4 km/h 8 km/h 87% 9.91 mm 91 W/m2
10:39 8.4 °C 6.6 °C 1018.2 hPa East 6.4 km/h 11.3 km/h 88% 4.83 mm 105 W/m2
10:44 8.6 °C 6.7 °C 1018.2 hPa East 8 km/h 11.3 km/h 88% 1.78 mm 116 W/m2
10:50 8.7 °C 6.6 °C 1018.2 hPa East 8 km/h 8 km/h 87% 1.02 mm 134 W/m2
10:56 8.9 °C 7 °C 1018.2 hPa ESE 6.4 km/h 8 km/h 88% 1.02 mm 193 W/m2
11:02 9.1 °C 7 °C 1018.2 hPa East 6.4 km/h 14.5 km/h 87% 1.02 mm 221 W/m2
11:08 9.2 °C 6.9 °C 1018.2 hPa NE 8 km/h 14.5 km/h 86% 1.02 mm 221 W/m2
11:14 9.3 °C 7.1 °C 1018.2 hPa NE 6.4 km/h 11.3 km/h 86% 0 mm 213 W/m2
11:20 9.3 °C 7.1 °C 1018.2 hPa ENE 6.4 km/h 6.4 km/h 86% 0 mm 193 W/m2
11:26 9.3 °C 7.1 °C 1018.2 hPa ESE 6.4 km/h 12.9 km/h 86% 0 mm 171 W/m2
11:32 9.2 °C 7.2 °C 1018.2 hPa East 6.4 km/h 6.4 km/h 87% 0 mm 211 W/m2
11:38 9.2 °C 7.2 °C 1017.8 hPa ESE 6.4 km/h 6.4 km/h 87% 0 mm 251 W/m2
11:44 9.3 °C 7.2 °C 1017.8 hPa East 8 km/h 8 km/h 87% 0 mm 285 W/m2
11:50 9.3 °C 7.3 °C 1017.5 hPa ESE 8 km/h 8 km/h 87% 0 mm 281 W/m2
11:56 9.2 °C 7 °C 1017.5 hPa NE 8 km/h 11.3 km/h 86% 0 mm 267 W/m2
12:02 9.2 °C 7.2 °C 1017.5 hPa ENE 8 km/h 8 km/h 87% 0 mm 302 W/m2
12:08 9.3 °C 7.3 °C 1017.5 hPa East 8 km/h 11.3 km/h 87% 0 mm 309 W/m2
12:14 9.4 °C 7.3 °C 1017.5 hPa ESE 8 km/h 20.9 km/h 87% 0 mm 315 W/m2
12:20 9.4 °C 7.2 °C 1017.5 hPa ENE 8 km/h 14.5 km/h 86% 0 mm 320 W/m2
12:26 9.6 °C 7.6 °C 1017.5 hPa ESE 9.7 km/h 14.5 km/h 87% 0 mm 244 W/m2
12:32 9.8 °C 7.6 °C 1017.2 hPa ENE 8 km/h 8 km/h 86% 0 mm 276 W/m2
12:38 10 °C 7.9 °C 1016.8 hPa East 6.4 km/h 8 km/h 87% 0 mm 311 W/m2
12:44 10.2 °C 7.9 °C 1016.8 hPa East 6.4 km/h 12.9 km/h 86% 0 mm 350 W/m2
12:50 10.5 °C 8.4 °C 1016.8 hPa East 6.4 km/h 6.4 km/h 87% 0 mm 359 W/m2
12:56 10.6 °C 8.1 °C 1016.8 hPa SE 8 km/h 8 km/h 85% 0 mm 381 W/m2
13:02 10.9 °C 8.3 °C 1016.8 hPa East 9.7 km/h 12.9 km/h 84% 0 mm 401 W/m2
13:08 11.1 °C 8.3 °C 1016.5 hPa East 9.7 km/h 14.5 km/h 83% 0 mm 345 W/m2
13:14 11.2 °C 8.2 °C 1016.5 hPa NE 9.7 km/h 14.5 km/h 82% 0 mm 274 W/m2
13:20 11.1 °C 8.2 °C 1016.5 hPa ESE 11.3 km/h 11.3 km/h 82% 0 mm 213 W/m2
13:26 11.3 °C 8.7 °C 1016.5 hPa East 6.4 km/h 11.3 km/h 84% 0 mm 209 W/m2
13:32 11.3 °C 8.7 °C 1016.5 hPa East 4.8 km/h 8 km/h 84% 0 mm 302 W/m2
13:44 12.1 °C 9.1 °C 1016.5 hPa ENE 6.4 km/h 9.7 km/h 82% 0 mm 394 W/m2
13:50 12.2 °C 9.2 °C 1016.1 hPa ENE 8 km/h 8 km/h 82% 0 mm 311 W/m2
13:56 12.2 °C 8.8 °C 1016.1 hPa SE 9.7 km/h 12.9 km/h 80% 0 mm 279 W/m2
14:02 12.1 °C 8.8 °C 1015.8 hPa East 8 km/h 8 km/h 80% 0 mm 241 W/m2
14:10 11.8 °C 8.5 °C 1015.8 hPa East 8 km/h 12.9 km/h 80% 0 mm 213 W/m2
14:16 11.7 °C 8.3 °C 1015.8 hPa ENE 9.7 km/h 12.9 km/h 80% 0 mm 244 W/m2
14:22 11.7 °C 8.3 °C 1015.8 hPa ENE 8 km/h 8 km/h 80% 0 mm 323 W/m2
14:28 11.6 °C 8.3 °C 1015.8 hPa SSW 8 km/h 16.1 km/h 80% 0 mm 392 W/m2
14:34 11.6 °C 8.3 °C 1015.8 hPa NNE 9.7 km/h 12.9 km/h 80% 0 mm 369 W/m2
14:40 11.7 °C 8.2 °C 1015.8 hPa East 9.7 km/h 9.7 km/h 79% 0 mm 343 W/m2
14:52 11.9 °C 8.6 °C 1015.5 hPa NE 8 km/h 8 km/h 80% 0 mm 262 W/m2
14:58 12.1 °C 8.6 °C 1015.5 hPa ENE 6.4 km/h 8 km/h 79% 0 mm 246 W/m2
15:04 12.2 °C 8.3 °C 1015.5 hPa SE 8 km/h 11.3 km/h 77% 0 mm 290 W/m2
15:10 12.4 °C 8.7 °C 1015.1 hPa ENE 9.7 km/h 12.9 km/h 78% 0 mm 360 W/m2
15:16 12.7 °C 8.7 °C 1015.1 hPa East 9.7 km/h 12.9 km/h 77% 0 mm 378 W/m2
15:22 13.2 °C 9 °C 1014.8 hPa ESE 6.4 km/h 11.3 km/h 76% 0 mm 471 W/m2
15:28 13.2 °C 8.5 °C 1014.8 hPa ESE 8 km/h 11.3 km/h 73% 0 mm 415 W/m2
15:34 12.9 °C 8.6 °C 1014.8 hPa East 8 km/h 8 km/h 75% 0 mm 316 W/m2
15:40 12.9 °C 8.8 °C 1014.8 hPa East 8 km/h 8 km/h 76% 0 mm 350 W/m2
15:46 12.9 °C 8.8 °C 1014.8 hPa East 8 km/h 14.5 km/h 76% 0 mm 448 W/m2
15:52 12.8 °C 8.7 °C 1014.8 hPa ENE 8 km/h 12.9 km/h 76% 0 mm 422 W/m2
15:58 12.8 °C 8.4 °C 1014.8 hPa East 9.7 km/h 12.9 km/h 75% 0 mm 401 W/m2
16:04 12.8 °C 8.5 °C 1014.8 hPa ENE 9.7 km/h 19.3 km/h 75% 0 mm 320 W/m2
16:10 12.8 °C 8.7 °C 1014.4 hPa East 8 km/h 17.7 km/h 76% 0 mm 276 W/m2
16:16 12.8 °C 8.7 °C 1014.4 hPa North 9.7 km/h 17.7 km/h 76% 0 mm 272 W/m2
16:22 12.9 °C 8.6 °C 1014.4 hPa NE 8 km/h 12.9 km/h 75% 0 mm 283 W/m2
16:28 12.8 °C 8.3 °C 1014.1 hPa East 9.7 km/h 12.9 km/h 74% 0 mm 267 W/m2
16:34 12.7 °C 8.3 °C 1014.1 hPa East 9.7 km/h 16.1 km/h 75% 0 mm 251 W/m2
16:40 12.6 °C 8.2 °C 1014.1 hPa ENE 9.7 km/h 9.7 km/h 75% 0 mm 264 W/m2
16:46 12.5 °C 8.4 °C 1014.1 hPa NE 9.7 km/h 12.9 km/h 76% 0 mm 262 W/m2
16:52 12.7 °C 8.3 °C 1014.1 hPa ESE 9.7 km/h 9.7 km/h 75% 0 mm 297 W/m2
16:58 12.7 °C 8.6 °C 1013.8 hPa East 9.7 km/h 16.1 km/h 76% 0 mm 246 W/m2
17:03 12.8 °C 8.7 °C 1013.8 hPa East 9.7 km/h 12.9 km/h 76% 0 mm 232 W/m2
17:10 12.8 °C 8.7 °C 1013.8 hPa East 9.7 km/h 11.3 km/h 76% 0 mm 295 W/m2
17:16 12.9 °C 8.6 °C 1013.8 hPa ENE 9.7 km/h 12.9 km/h 75% 0 mm 220 W/m2
17:22 13.1 °C 8.7 °C 1013.8 hPa ENE 9.7 km/h 9.7 km/h 75% 0 mm 169 W/m2
17:28 13.1 °C 8.8 °C 1013.8 hPa NE 8 km/h 9.7 km/h 75% 0 mm 243 W/m2
17:34 13.2 °C 8.8 °C 1013.8 hPa NE 8 km/h 12.9 km/h 75% 0 mm 181 W/m2
17:40 13.3 °C 8.9 °C 1013.4 hPa ENE 8 km/h 8 km/h 75% 0 mm 162 W/m2
17:46 13.2 °C 8.8 °C 1013.4 hPa ENE 8 km/h 16.1 km/h 75% 0 mm 135 W/m2
17:52 13.1 °C 8.7 °C 1013.4 hPa SW 8 km/h 8 km/h 75% 0 mm 114 W/m2
17:58 12.9 °C 8.6 °C 1013.8 hPa ESE 6.4 km/h 8 km/h 75% 0 mm 134 W/m2
18:04 12.8 °C 8.7 °C 1013.4 hPa East 8 km/h 11.3 km/h 76% 0 mm 125 W/m2
18:10 12.7 °C 8.6 °C 1013.4 hPa ESE 9.7 km/h 16.1 km/h 76% 0 mm 100 W/m2
18:16 12.7 °C 8.6 °C 1013.8 hPa East 9.7 km/h 16.1 km/h 76% 0 mm 93 W/m2
18:22 12.7 °C 8.6 °C 1013.8 hPa SE 9.7 km/h 9.7 km/h 76% 0 mm 83 W/m2
18:28 12.7 °C 8.6 °C 1013.4 hPa ENE 8 km/h 17.7 km/h 76% 0 mm 74 W/m2
18:34 12.6 °C 8.7 °C 1013.8 hPa ENE 6.4 km/h 8 km/h 77% 0 mm 69 W/m2
18:40 12.4 °C 8.4 °C 1013.4 hPa ENE 6.4 km/h 14.5 km/h 77% 0 mm 62 W/m2
18:46 12.3 °C 8.6 °C 1013.4 hPa ESE 6.4 km/h 14.5 km/h 78% 0 mm 54 W/m2
18:52 12.3 °C 8.6 °C 1013.4 hPa NE 4.8 km/h 9.7 km/h 78% 0 mm 49 W/m2
18:58 12.3 °C 8.6 °C 1013.4 hPa East 3.2 km/h 9.7 km/h 78% 0 mm 44 W/m2
19:04 12.3 °C 8.6 °C 1013.4 hPa NE 4.8 km/h 4.8 km/h 78% 0 mm 30 W/m2
19:10 12.1 °C 8.4 °C 1013.4 hPa NNE 6.4 km/h 6.4 km/h 78% 0 mm 28 W/m2
19:16 12 °C 8.3 °C 1013.4 hPa ENE 6.4 km/h 8 km/h 78% 0 mm 23 W/m2
19:22 12 °C 8.4 °C 1013.4 hPa ENE 6.4 km/h 8 km/h 79% 0 mm 18 W/m2
19:28 12 °C 8.3 °C 1013.4 hPa East 6.4 km/h 8 km/h 78% 0 mm 16 W/m2
19:34 11.9 °C 8.2 °C 1013.4 hPa ENE 6.4 km/h 8 km/h 78% 0 mm 12 W/m2
19:40 11.9 °C 8.2 °C 1013.4 hPa ENE 8 km/h 8 km/h 78% 0 mm 9 W/m2
19:46 11.9 °C 8.2 °C 1013.4 hPa NE 8 km/h 9.7 km/h 78% 0 mm 5 W/m2
19:52 11.9 °C 8.2 °C 1013.1 hPa NE 9.7 km/h 9.7 km/h 78% 0 mm 0 W/m2
20:10 11.9 °C 8.2 °C 1013.1 hPa NE 8 km/h 8 km/h 78% 0 mm 0 W/m2
20:16 11.9 °C 8.2 °C 1013.1 hPa North 8 km/h 16.1 km/h 78% 0 mm 0 W/m2
20:22 11.9 °C 8.2 °C 1013.1 hPa ESE 8 km/h 11.3 km/h 78% 0 mm 0 W/m2
20:28 11.9 °C 8 °C 1013.1 hPa SE 6.4 km/h 11.3 km/h 77% 0 mm 0 W/m2
20:34 11.9 °C 8.1 °C 1013.1 hPa ENE 8 km/h 12.9 km/h 77% 0 mm 0 W/m2
20:40 11.9 °C 8.1 °C 1013.1 hPa NE 8 km/h 8 km/h 77% 0 mm 0 W/m2
20:46 11.9 °C 8 °C 1013.1 hPa ENE 6.4 km/h 9.7 km/h 77% 0 mm 0 W/m2
20:52 11.9 °C 8 °C 1013.1 hPa ENE 6.4 km/h 11.3 km/h 77% 0 mm 0 W/m2
20:58 11.9 °C 8.2 °C 1013.1 hPa ESE 6.4 km/h 16.1 km/h 78% 0 mm 0 W/m2
21:04 11.9 °C 8.2 °C 1013.1 hPa NNE 8 km/h 8 km/h 78% 0 mm 0 W/m2
21:10 11.8 °C 8.1 °C 1013.1 hPa NE 8 km/h 8 km/h 78% 0 mm 0 W/m2
21:16 11.9 °C 8.2 °C 1012.8 hPa East 8 km/h 9.7 km/h 78% 0 mm 0 W/m2
21:22 11.8 °C 8.1 °C 1012.8 hPa SSE 6.4 km/h 11.3 km/h 78% 0 mm 0 W/m2
21:28 11.8 °C 8.1 °C 1012.8 hPa ENE 8 km/h 11.3 km/h 78% 0 mm 0 W/m2
21:34 11.8 °C 8.1 °C 1012.8 hPa East 8 km/h 12.9 km/h 78% 0 mm 0 W/m2
21:40 11.8 °C 8.1 °C 1012.8 hPa ESE 9.7 km/h 11.3 km/h 78% 0 mm 0 W/m2
21:46 11.7 °C 8.2 °C 1012.8 hPa SE 8 km/h 12.9 km/h 79% 0 mm 0 W/m2
21:52 11.7 °C 8.2 °C 1012.8 hPa ENE 8 km/h 14.5 km/h 79% 0 mm 0 W/m2
21:58 11.7 °C 8.2 °C 1012.4 hPa SE 8 km/h 14.5 km/h 79% 0 mm 0 W/m2
22:04 11.7 °C 8.2 °C 1012.4 hPa NE 8 km/h 8 km/h 79% 0 mm 0 W/m2
22:10 11.7 °C 8.2 °C 1012.4 hPa SE 8 km/h 8 km/h 79% 0 mm 0 W/m2
22:16 11.6 °C 8.1 °C 1012.4 hPa NNE 8 km/h 11.3 km/h 79% 0 mm 0 W/m2
22:22 11.6 °C 8.2 °C 1012.4 hPa ESE 6.4 km/h 8 km/h 80% 0 mm 0 W/m2
22:34 11.4 °C 8.3 °C 1012.1 hPa East 8 km/h 24.1 km/h 81% 0 mm 0 W/m2
22:40 11.4 °C 8.3 °C 1012.1 hPa East 6.4 km/h 6.4 km/h 81% 0 mm 0 W/m2
22:46 11.4 °C 8.1 °C 1012.1 hPa ESE 8 km/h 12.9 km/h 80% 0 mm 0 W/m2
22:52 11.4 °C 8.3 °C 1011.7 hPa ENE 8 km/h 8 km/h 81% 0 mm 0 W/m2
22:58 11.4 °C 8.2 °C 1011.7 hPa SSE 6.4 km/h 14.5 km/h 81% 0 mm 0 W/m2
23:04 11.3 °C 8.2 °C 1011.7 hPa ESE 6.4 km/h 6.4 km/h 81% 0 mm 0 W/m2
23:10 11.3 °C 8.2 °C 1011.7 hPa East 6.4 km/h 8 km/h 81% 0 mm 0 W/m2
23:16 11.2 °C 8.3 °C 1011.7 hPa SE 6.4 km/h 8 km/h 82% 0 mm 0 W/m2
23:22 11 °C 8.4 °C 1011.7 hPa South 6.4 km/h 6.4 km/h 84% 0 mm 0 W/m2
23:28 10.8 °C 8.3 °C 1011.4 hPa ESE 4.8 km/h 6.4 km/h 85% 0 mm 0 W/m2
23:34 10.7 °C 8.4 °C 1011.4 hPa ESE 4.8 km/h 6.4 km/h 86% 0 mm 0 W/m2
23:40 10.6 °C 8.4 °C 1011.1 hPa East 8 km/h 9.7 km/h 86% 0 mm 0 W/m2
23:46 10.6 °C 8.4 °C 1011.1 hPa ENE 8 km/h 9.7 km/h 86% 0 mm 0 W/m2
23:52 10.6 °C 8.5 °C 1010.7 hPa ENE 8 km/h 16.1 km/h 87% 0 mm 0 W/m2
23:58 10.5 °C 8.4 °C 1010.7 hPa SE 6.4 km/h 16.1 km/h 87% 0 mm 0 W/m2
Country Meadow, Clay, NY, USA
Compliments of Weather Underground - 2 mb